sensor_id;sensor_type;location;lat;lon;timestamp;pressure;altitude;pressure_sealevel;temperature;humidity
17593;BME280;8915;51.760;14.300;2023-01-29T00:00:20;102028.00;;;-3.82;100.00
17593;BME280;8915;51.760;14.300;2023-01-29T00:02:46;102028.63;;;-3.86;100.00
17593;BME280;8915;51.760;14.300;2023-01-29T00:05:14;102029.28;;;-3.90;100.00
17593;BME280;8915;51.760;14.300;2023-01-29T00:07:40;102022.22;;;-3.94;100.00
17593;BME280;8915;51.760;14.300;2023-01-29T00:10:10;102014.19;;;-4.02;100.00
17593;BME280;8915;51.760;14.300;2023-01-29T00:12:36;102005.56;;;-4.04;100.00
17593;BME280;8915;51.760;14.300;2023-01-29T00:15:03;102008.63;;;-4.10;100.00
17593;BME280;8915;51.760;14.300;2023-01-29T00:17:30;102002.34;;;-4.16;100.00
17593;BME280;8915;51.760;14.300;2023-01-29T00:19:56;102000.25;;;-4.24;100.00
17593;BME280;8915;51.760;14.300;2023-01-29T00:22:23;101999.19;;;-4.27;100.00
17593;BME280;8915;51.760;14.300;2023-01-29T00:24:50;101999.03;;;-4.30;100.00
17593;BME280;8915;51.760;14.300;2023-01-29T00:27:17;101997.88;;;-4.35;100.00
17593;BME280;8915;51.760;14.300;2023-01-29T00:29:44;102001.06;;;-4.40;100.00
17593;BME280;8915;51.760;14.300;2023-01-29T00:32:31;102010.19;;;-4.43;100.00
17593;BME280;8915;51.760;14.300;2023-01-29T00:34:57;102004.00;;;-4.47;100.00
17593;BME280;8915;51.760;14.300;2023-01-29T00:37:23;102008.00;;;-4.52;100.00
17593;BME280;8915;51.760;14.300;2023-01-29T00:39:50;102017.13;;;-4.55;100.00
17593;BME280;8915;51.760;14.300;2023-01-29T00:42:17;102018.53;;;-4.61;100.00
17593;BME280;8915;51.760;14.300;2023-01-29T00:45:02;102002.88;;;-4.67;100.00
17593;BME280;8915;51.760;14.300;2023-01-29T00:47:29;101998.50;;;-4.69;100.00
17593;BME280;8915;51.760;14.300;2023-01-29T00:49:57;102005.97;;;-4.72;100.00
17593;BME280;8915;51.760;14.300;2023-01-29T00:52:24;102004.09;;;-4.75;100.00
17593;BME280;8915;51.760;14.300;2023-01-29T00:54:51;102005.59;;;-4.79;100.00
17593;BME280;8915;51.760;14.300;2023-01-29T00:57:19;102002.16;;;-4.79;100.00
17593;BME280;8915;51.760;14.300;2023-01-29T00:59:46;101984.88;;;-4.85;100.00
17593;BME280;8915;51.760;14.300;2023-01-29T01:02:12;101983.94;;;-4.87;100.00
17593;BME280;8915;51.760;14.300;2023-01-29T01:05:14;101982.16;;;-4.88;100.00
17593;BME280;8915;51.760;14.300;2023-01-29T01:07:43;101980.41;;;-4.89;100.00
17593;BME280;8915;51.760;14.300;2023-01-29T01:10:13;101976.09;;;-4.90;100.00
17593;BME280;8915;51.760;14.300;2023-01-29T01:12:53;101973.38;;;-4.93;100.00
17593;BME280;8915;51.760;14.300;2023-01-29T01:15:20;101969.00;;;-4.96;100.00
17593;BME280;8915;51.760;14.300;2023-01-29T01:17:50;101971.44;;;-4.97;100.00
17593;BME280;8915;51.760;14.300;2023-01-29T01:20:17;101971.63;;;-4.94;100.00
17593;BME280;8915;51.760;14.300;2023-01-29T01:22:44;101968.91;;;-4.97;100.00
17593;BME280;8915;51.760;14.300;2023-01-29T01:25:10;101967.94;;;-4.99;100.00
17593;BME280;8915;51.760;14.300;2023-01-29T01:27:37;101968.44;;;-5.05;100.00
17593;BME280;8915;51.760;14.300;2023-01-29T01:30:09;101967.56;;;-5.05;100.00
17593;BME280;8915;51.760;14.300;2023-01-29T01:32:36;101971.59;;;-5.09;100.00
17593;BME280;8915;51.760;14.300;2023-01-29T01:35:03;101964.06;;;-5.07;100.00
17593;BME280;8915;51.760;14.300;2023-01-29T01:37:31;101957.22;;;-5.08;100.00
17593;BME280;8915;51.760;14.300;2023-01-29T01:39:57;101951.25;;;-5.09;100.00
17593;BME280;8915;51.760;14.300;2023-01-29T01:42:27;101959.69;;;-5.10;100.00
17593;BME280;8915;51.760;14.300;2023-01-29T01:44:57;101957.41;;;-5.05;100.00
17593;BME280;8915;51.760;14.300;2023-01-29T01:47:33;101945.63;;;-5.03;100.00
17593;BME280;8915;51.760;14.300;2023-01-29T01:50:06;101944.88;;;-5.02;100.00
17593;BME280;8915;51.760;14.300;2023-01-29T01:52:36;101946.53;;;-5.03;100.00
17593;BME280;8915;51.760;14.300;2023-01-29T01:55:05;101939.50;;;-5.07;100.00
17593;BME280;8915;51.760;14.300;2023-01-29T01:57:32;101948.63;;;-5.10;100.00
17593;BME280;8915;51.760;14.300;2023-01-29T02:00:05;101953.59;;;-5.12;100.00
17593;BME280;8915;51.760;14.300;2023-01-29T02:02:44;101951.00;;;-5.14;100.00
17593;BME280;8915;51.760;14.300;2023-01-29T02:05:31;101941.59;;;-5.15;100.00
17593;BME280;8915;51.760;14.300;2023-01-29T02:08:18;101942.22;;;-5.19;100.00
17593;BME280;8915;51.760;14.300;2023-01-29T02:11:07;101937.63;;;-5.24;100.00
17593;BME280;8915;51.760;14.300;2023-01-29T02:13:34;101944.38;;;-5.25;100.00
17593;BME280;8915;51.760;14.300;2023-01-29T02:16:03;101949.38;;;-5.26;100.00
17593;BME280;8915;51.760;14.300;2023-01-29T02:18:33;101939.91;;;-5.29;100.00
17593;BME280;8915;51.760;14.300;2023-01-29T02:21:19;101945.88;;;-5.28;100.00
17593;BME280;8915;51.760;14.300;2023-01-29T02:24:06;101954.56;;;-5.25;100.00
17593;BME280;8915;51.760;14.300;2023-01-29T02:26:43;101944.56;;;-5.22;100.00
17593;BME280;8915;51.760;14.300;2023-01-29T02:29:17;101948.69;;;-5.24;100.00
17593;BME280;8915;51.760;14.300;2023-01-29T02:31:54;101946.31;;;-5.21;100.00
17593;BME280;8915;51.760;14.300;2023-01-29T02:34:31;101938.28;;;-5.14;100.00
17593;BME280;8915;51.760;14.300;2023-01-29T02:37:18;101949.75;;;-5.05;100.00
17593;BME280;8915;51.760;14.300;2023-01-29T02:39:56;101946.34;;;-4.91;100.00
17593;BME280;8915;51.760;14.300;2023-01-29T02:42:31;101946.97;;;-4.80;100.00
17593;BME280;8915;51.760;14.300;2023-01-29T02:45:08;101945.13;;;-4.68;100.00
17593;BME280;8915;51.760;14.300;2023-01-29T02:47:41;101938.03;;;-4.59;100.00
17593;BME280;8915;51.760;14.300;2023-01-29T02:50:14;101934.31;;;-4.49;100.00
17593;BME280;8915;51.760;14.300;2023-01-29T02:52:45;101939.94;;;-4.40;100.00
17593;BME280;8915;51.760;14.300;2023-01-29T02:55:18;101948.19;;;-4.29;100.00
17593;BME280;8915;51.760;14.300;2023-01-29T02:57:48;101948.50;;;-4.23;100.00
17593;BME280;8915;51.760;14.300;2023-01-29T03:00:25;101943.13;;;-4.12;100.00
17593;BME280;8915;51.760;14.300;2023-01-29T03:02:57;101933.88;;;-4.10;100.00
17593;BME280;8915;51.760;14.300;2023-01-29T03:05:29;101934.31;;;-4.03;100.00
17593;BME280;8915;51.760;14.300;2023-01-29T03:08:00;101936.22;;;-3.98;100.00
17593;BME280;8915;51.760;14.300;2023-01-29T03:10:36;101930.50;;;-3.94;100.00
17593;BME280;8915;51.760;14.300;2023-01-29T03:13:07;101930.75;;;-3.90;100.00
17593;BME280;8915;51.760;14.300;2023-01-29T03:15:41;101925.09;;;-3.84;100.00
17593;BME280;8915;51.760;14.300;2023-01-29T03:18:23;101933.09;;;-3.78;100.00
17593;BME280;8915;51.760;14.300;2023-01-29T03:21:00;101929.81;;;-3.75;100.00
17593;BME280;8915;51.760;14.300;2023-01-29T03:23:30;101924.06;;;-3.71;100.00
17593;BME280;8915;51.760;14.300;2023-01-29T03:26:20;101925.09;;;-3.68;100.00
17593;BME280;8915;51.760;14.300;2023-01-29T03:29:07;101922.81;;;-3.63;100.00
17593;BME280;8915;51.760;14.300;2023-01-29T03:31:55;101928.94;;;-3.59;100.00
17593;BME280;8915;51.760;14.300;2023-01-29T03:34:37;101926.56;;;-3.56;100.00
17593;BME280;8915;51.760;14.300;2023-01-29T03:37:12;101920.81;;;-3.52;100.00
17593;BME280;8915;51.760;14.300;2023-01-29T03:39:43;101913.41;;;-3.48;100.00
17593;BME280;8915;51.760;14.300;2023-01-29T03:42:13;101908.41;;;-3.46;100.00
17593;BME280;8915;51.760;14.300;2023-01-29T03:44:49;101911.91;;;-3.44;100.00
17593;BME280;8915;51.760;14.300;2023-01-29T03:47:38;101905.13;;;-3.44;100.00
17593;BME280;8915;51.760;14.300;2023-01-29T03:50:11;101906.97;;;-3.41;100.00
17593;BME280;8915;51.760;14.300;2023-01-29T03:52:46;101917.22;;;-3.39;100.00
17593;BME280;8915;51.760;14.300;2023-01-29T03:55:16;101906.22;;;-3.38;100.00
17593;BME280;8915;51.760;14.300;2023-01-29T03:57:52;101914.84;;;-3.36;100.00
17593;BME280;8915;51.760;14.300;2023-01-29T04:00:25;101910.75;;;-3.33;100.00
17593;BME280;8915;51.760;14.300;2023-01-29T04:03:06;101908.28;;;-3.31;100.00
17593;BME280;8915;51.760;14.300;2023-01-29T04:05:42;101909.16;;;-3.31;100.00
17593;BME280;8915;51.760;14.300;2023-01-29T04:08:22;101895.69;;;-3.28;100.00
17593;BME280;8915;51.760;14.300;2023-01-29T04:10:53;101886.28;;;-3.29;100.00
17593;BME280;8915;51.760;14.300;2023-01-29T04:13:22;101884.75;;;-3.26;100.00
17593;BME280;8915;51.760;14.300;2023-01-29T04:15:54;101889.88;;;-3.26;100.00
17593;BME280;8915;51.760;14.300;2023-01-29T04:18:44;101895.94;;;-3.24;100.00
17593;BME280;8915;51.760;14.300;2023-01-29T04:21:12;101900.22;;;-3.22;100.00
17593;BME280;8915;51.760;14.300;2023-01-29T04:23:39;101889.31;;;-3.20;100.00
17593;BME280;8915;51.760;14.300;2023-01-29T04:26:20;101883.31;;;-3.20;100.00
17593;BME280;8915;51.760;14.300;2023-01-29T04:28:58;101874.97;;;-3.18;100.00
17593;BME280;8915;51.760;14.300;2023-01-29T04:31:31;101868.97;;;-3.18;100.00
17593;BME280;8915;51.760;14.300;2023-01-29T04:34:11;101863.06;;;-3.17;100.00
17593;BME280;8915;51.760;14.300;2023-01-29T04:36:51;101864.00;;;-3.15;100.00
17593;BME280;8915;51.760;14.300;2023-01-29T04:39:24;101850.47;;;-3.14;100.00
17593;BME280;8915;51.760;14.300;2023-01-29T04:41:55;101846.22;;;-3.14;100.00
17593;BME280;8915;51.760;14.300;2023-01-29T04:44:32;101851.41;;;-3.12;100.00
17593;BME280;8915;51.760;14.300;2023-01-29T04:47:04;101849.66;;;-3.13;100.00
17593;BME280;8915;51.760;14.300;2023-01-29T04:49:42;101839.53;;;-3.12;100.00
17593;BME280;8915;51.760;14.300;2023-01-29T04:52:16;101839.53;;;-3.12;100.00
17593;BME280;8915;51.760;14.300;2023-01-29T04:54:54;101819.13;;;-3.12;100.00
17593;BME280;8915;51.760;14.300;2023-01-29T04:57:30;101819.28;;;-3.09;100.00
17593;BME280;8915;51.760;14.300;2023-01-29T05:00:02;101825.16;;;-3.10;100.00
17593;BME280;8915;51.760;14.300;2023-01-29T05:02:40;101827.78;;;-3.08;100.00
17593;BME280;8915;51.760;14.300;2023-01-29T05:05:09;101825.25;;;-3.08;100.00
17593;BME280;8915;51.760;14.300;2023-01-29T05:07:37;101834.66;;;-3.07;100.00
17593;BME280;8915;51.760;14.300;2023-01-29T05:10:06;101820.22;;;-3.07;100.00
17593;BME280;8915;51.760;14.300;2023-01-29T05:12:36;101814.16;;;-3.09;100.00
17593;BME280;8915;51.760;14.300;2023-01-29T05:15:07;101820.22;;;-3.07;100.00
17593;BME280;8915;51.760;14.300;2023-01-29T05:17:34;101823.63;;;-3.06;100.00
17593;BME280;8915;51.760;14.300;2023-01-29T05:20:01;101817.81;;;-3.03;100.00
17593;BME280;8915;51.760;14.300;2023-01-29T05:22:29;101821.16;;;-3.05;100.00
17593;BME280;8915;51.760;14.300;2023-01-29T05:24:56;101810.94;;;-3.05;100.00
17593;BME280;8915;51.760;14.300;2023-01-29T05:27:28;101810.16;;;-3.03;100.00
17593;BME280;8915;51.760;14.300;2023-01-29T05:30:13;101808.47;;;-3.03;100.00
17593;BME280;8915;51.760;14.300;2023-01-29T05:32:39;101806.81;;;-3.02;100.00
17593;BME280;8915;51.760;14.300;2023-01-29T05:35:06;101806.75;;;-3.04;100.00
17593;BME280;8915;51.760;14.300;2023-01-29T05:37:34;101822.19;;;-3.01;100.00
17593;BME280;8915;51.760;14.300;2023-01-29T05:40:00;101813.66;;;-3.01;100.00
17593;BME280;8915;51.760;14.300;2023-01-29T05:42:27;101823.06;;;-3.00;100.00
17593;BME280;8915;51.760;14.300;2023-01-29T05:44:54;101821.56;;;-2.97;100.00
17593;BME280;8915;51.760;14.300;2023-01-29T05:47:20;101819.78;;;-2.98;100.00
17593;BME280;8915;51.760;14.300;2023-01-29T05:49:47;101821.56;;;-2.97;100.00
17593;BME280;8915;51.760;14.300;2023-01-29T05:52:13;101829.31;;;-2.94;100.00
17593;BME280;8915;51.760;14.300;2023-01-29T05:54:41;101835.25;;;-2.95;100.00
17593;BME280;8915;51.760;14.300;2023-01-29T05:57:07;101831.00;;;-2.94;100.00
17593;BME280;8915;51.760;14.300;2023-01-29T05:59:34;101846.31;;;-2.94;100.00
17593;BME280;8915;51.760;14.300;2023-01-29T06:02:00;101848.97;;;-2.93;100.00
17593;BME280;8915;51.760;14.300;2023-01-29T06:04:26;101850.72;;;-2.92;100.00
17593;BME280;8915;51.760;14.300;2023-01-29T06:06:53;101864.34;;;-2.91;100.00
17593;BME280;8915;51.760;14.300;2023-01-29T06:12:54;101854.22;;;-2.90;100.00
17593;BME280;8915;51.760;14.300;2023-01-29T06:15:37;101866.25;;;-2.87;100.00
17593;BME280;8915;51.760;14.300;2023-01-29T06:18:53;101869.53;;;-2.90;100.00
17593;BME280;8915;51.760;14.300;2023-01-29T06:22:27;101857.63;;;-2.89;100.00
17593;BME280;8915;51.760;14.300;2023-01-29T06:25:33;101858.38;;;-2.92;100.00
17593;BME280;8915;51.760;14.300;2023-01-29T06:28:34;101865.22;;;-2.91;100.00
17593;BME280;8915;51.760;14.300;2023-01-29T06:31:40;101881.34;;;-2.92;100.00
17593;BME280;8915;51.760;14.300;2023-01-29T06:34:16;101888.09;;;-2.92;100.00
17593;BME280;8915;51.760;14.300;2023-01-29T06:37:29;101874.56;;;-2.91;100.00
17593;BME280;8915;51.760;14.300;2023-01-29T06:40:48;101878.66;;;-2.95;100.00
17593;BME280;8915;51.760;14.300;2023-01-29T06:43:16;101881.91;;;-2.97;100.00
17593;BME280;8915;51.760;14.300;2023-01-29T06:45:47;101883.44;;;-3.01;100.00
17593;BME280;8915;51.760;14.300;2023-01-29T06:48:14;101892.84;;;-3.00;100.00
17593;BME280;8915;51.760;14.300;2023-01-29T06:50:41;101894.63;;;-2.99;100.00
17593;BME280;8915;51.760;14.300;2023-01-29T06:53:07;101896.44;;;-2.96;100.00
17593;BME280;8915;51.760;14.300;2023-01-29T06:55:34;101886.22;;;-2.96;100.00
17593;BME280;8915;51.760;14.300;2023-01-29T06:58:05;101879.59;;;-2.93;100.00
17593;BME280;8915;51.760;14.300;2023-01-29T07:00:32;101872.09;;;-2.90;100.00
17593;BME280;8915;51.760;14.300;2023-01-29T07:02:59;101874.63;;;-2.90;100.00
17593;BME280;8915;51.760;14.300;2023-01-29T07:05:25;101876.44;;;-2.87;100.00
17593;BME280;8915;51.760;14.300;2023-01-29T07:07:52;101883.47;;;-2.83;100.00
17593;BME280;8915;51.760;14.300;2023-01-29T07:10:18;101875.06;;;-2.80;100.00
17593;BME280;8915;51.760;14.300;2023-01-29T07:12:45;101883.75;;;-2.77;100.00
17593;BME280;8915;51.760;14.300;2023-01-29T07:15:13;101884.69;;;-2.75;100.00
17593;BME280;8915;51.760;14.300;2023-01-29T07:17:44;101883.84;;;-2.75;100.00
17593;BME280;8915;51.760;14.300;2023-01-29T07:20:10;101873.03;;;-2.70;100.00
17593;BME280;8915;51.760;14.300;2023-01-29T07:22:37;101867.84;;;-2.71;100.00
17593;BME280;8915;51.760;14.300;2023-01-29T07:25:05;101871.16;;;-2.74;100.00
17593;BME280;8915;51.760;14.300;2023-01-29T07:27:32;101878.28;;;-2.67;100.00
17593;BME280;8915;51.760;14.300;2023-01-29T07:29:58;101876.69;;;-2.64;100.00
17593;BME280;8915;51.760;14.300;2023-01-29T07:32:27;101874.22;;;-2.63;100.00
17593;BME280;8915;51.760;14.300;2023-01-29T07:34:53;101867.34;;;-2.64;100.00
17593;BME280;8915;51.760;14.300;2023-01-29T07:37:20;101852.91;;;-2.63;100.00
17593;BME280;8915;51.760;14.300;2023-01-29T07:39:47;101839.56;;;-2.58;100.00
17593;BME280;8915;51.760;14.300;2023-01-29T07:42:13;101847.00;;;-2.62;100.00
17593;BME280;8915;51.760;14.300;2023-01-29T07:44:40;101852.47;;;-2.55;100.00
17593;BME280;8915;51.760;14.300;2023-01-29T07:47:06;101838.09;;;-2.53;100.00
17593;BME280;8915;51.760;14.300;2023-01-29T07:49:34;101841.50;;;-2.52;100.00
17593;BME280;8915;51.760;14.300;2023-01-29T07:52:01;101851.72;;;-2.52;100.00
17593;BME280;8915;51.760;14.300;2023-01-29T07:54:27;101853.56;;;-2.50;100.00
17593;BME280;8915;51.760;14.300;2023-01-29T07:56:54;101841.81;;;-2.46;100.00
17593;BME280;8915;51.760;14.300;2023-01-29T07:59:20;101838.44;;;-2.45;100.00
17593;BME280;8915;51.760;14.300;2023-01-29T08:01:47;101846.09;;;-2.45;100.00
17593;BME280;8915;51.760;14.300;2023-01-29T08:04:13;101837.72;;;-2.42;100.00
17593;BME280;8915;51.760;14.300;2023-01-29T08:06:41;101842.75;;;-2.44;100.00
17593;BME280;8915;51.760;14.300;2023-01-29T08:09:09;101845.31;;;-2.44;100.00
17593;BME280;8915;51.760;14.300;2023-01-29T08:11:36;101838.75;;;-2.39;100.00
17593;BME280;8915;51.760;14.300;2023-01-29T08:14:02;101835.34;;;-2.38;100.00
17593;BME280;8915;51.760;14.300;2023-01-29T08:16:28;101844.56;;;-2.41;100.00
17593;BME280;8915;51.760;14.300;2023-01-29T08:18:55;101844.56;;;-2.41;100.00
17593;BME280;8915;51.760;14.300;2023-01-29T08:21:21;101830.25;;;-2.38;100.00
17593;BME280;8915;51.760;14.300;2023-01-29T08:23:49;101833.69;;;-2.37;100.00
17593;BME280;8915;51.760;14.300;2023-01-29T08:26:16;101830.47;;;-2.33;100.00
17593;BME280;8915;51.760;14.300;2023-01-29T08:28:42;101819.38;;;-2.34;100.00
17593;BME280;8915;51.760;14.300;2023-01-29T08:31:12;101817.84;;;-2.30;100.00
17593;BME280;8915;51.760;14.300;2023-01-29T08:33:39;101811.13;;;-2.28;100.00
17593;BME280;8915;51.760;14.300;2023-01-29T08:36:06;101812.22;;;-2.23;100.00
17593;BME280;8915;51.760;14.300;2023-01-29T08:38:34;101810.50;;;-2.22;100.00
17593;BME280;8915;51.760;14.300;2023-01-29T08:41:02;101806.34;;;-2.20;100.00
17593;BME280;8915;51.760;14.300;2023-01-29T08:43:29;101807.44;;;-2.15;100.00
17593;BME280;8915;51.760;14.300;2023-01-29T08:45:55;101821.28;;;-2.10;100.00
17593;BME280;8915;51.760;14.300;2023-01-29T08:48:21;101815.31;;;-2.11;100.00
17593;BME280;8915;51.760;14.300;2023-01-29T08:50:48;101815.50;;;-2.06;100.00
17593;BME280;8915;51.760;14.300;2023-01-29T08:53:14;101805.94;;;-2.10;100.00
17593;BME280;8915;51.760;14.300;2023-01-29T08:55:40;101810.34;;;-2.07;100.00
17593;BME280;8915;51.760;14.300;2023-01-29T08:58:09;101803.47;;;-2.08;100.00
17593;BME280;8915;51.760;14.300;2023-01-29T09:00:37;101795.88;;;-2.07;100.00
17593;BME280;8915;51.760;14.300;2023-01-29T09:03:04;101796.00;;;-2.04;100.00
17593;BME280;8915;51.760;14.300;2023-01-29T09:05:33;101786.13;;;-1.96;100.00
17593;BME280;8915;51.760;14.300;2023-01-29T09:07:59;101793.25;;;-1.89;100.00
17593;BME280;8915;51.760;14.300;2023-01-29T09:10:25;101790.63;;;-1.91;100.00
17593;BME280;8915;51.760;14.300;2023-01-29T09:12:53;101799.22;;;-1.88;100.00
17593;BME280;8915;51.760;14.300;2023-01-29T09:15:20;101797.63;;;-1.86;100.00
17593;BME280;8915;51.760;14.300;2023-01-29T09:17:47;101798.56;;;-1.84;100.00
17593;BME280;8915;51.760;14.300;2023-01-29T09:20:15;101796.19;;;-1.80;100.00
17593;BME280;8915;51.760;14.300;2023-01-29T09:22:42;101800.72;;;-1.74;100.00
17593;BME280;8915;51.760;14.300;2023-01-29T09:25:08;101795.59;;;-1.74;100.00
17593;BME280;8915;51.760;14.300;2023-01-29T09:27:35;101793.97;;;-1.72;100.00
17593;BME280;8915;51.760;14.300;2023-01-29T09:30:02;101793.97;;;-1.72;100.00
17593;BME280;8915;51.760;14.300;2023-01-29T09:32:30;101786.56;;;-1.66;100.00
17593;BME280;8915;51.760;14.300;2023-01-29T09:34:57;101792.41;;;-1.68;100.00
17593;BME280;8915;51.760;14.300;2023-01-29T09:37:24;101787.41;;;-1.65;100.00
17593;BME280;8915;51.760;14.300;2023-01-29T09:39:50;101787.63;;;-1.61;100.00
17593;BME280;8915;51.760;14.300;2023-01-29T09:42:21;101790.94;;;-1.63;100.00
17593;BME280;8915;51.760;14.300;2023-01-29T09:44:55;101791.72;;;-1.64;100.00
17593;BME280;8915;51.760;14.300;2023-01-29T09:47:24;101792.41;;;-1.68;100.00
17593;BME280;8915;51.760;14.300;2023-01-29T09:49:56;101792.50;;;-1.67;100.00
17593;BME280;8915;51.760;14.300;2023-01-29T09:52:32;101788.25;;;-1.66;100.00
17593;BME280;8915;51.760;14.300;2023-01-29T09:55:04;101788.31;;;-1.65;100.00
17593;BME280;8915;51.760;14.300;2023-01-29T09:57:37;101787.56;;;-1.62;100.00
17593;BME280;8915;51.760;14.300;2023-01-29T10:00:12;101785.13;;;-1.59;100.00
17593;BME280;8915;51.760;14.300;2023-01-29T10:02:52;101786.56;;;-1.66;100.00
17593;BME280;8915;51.760;14.300;2023-01-29T10:05:37;101780.72;;;-1.63;100.00
17593;BME280;8915;51.760;14.300;2023-01-29T10:08:35;101774.84;;;-1.61;100.00
17593;BME280;8915;51.760;14.300;2023-01-29T10:11:14;101765.38;;;-1.63;100.00
17593;BME280;8915;51.760;14.300;2023-01-29T10:13:47;101772.97;;;-1.65;100.00
17593;BME280;8915;51.760;14.300;2023-01-29T10:16:27;101761.84;;;-1.65;100.00
17593;BME280;8915;51.760;14.300;2023-01-29T10:19:10;101756.72;;;-1.65;100.00
17593;BME280;8915;51.760;14.300;2023-01-29T10:21:53;101752.75;;;-1.59;100.00
17593;BME280;8915;51.760;14.300;2023-01-29T10:24:30;101749.94;;;-1.65;100.00
17593;BME280;8915;51.760;14.300;2023-01-29T10:27:02;101745.84;;;-1.61;100.00
17593;BME280;8915;51.760;14.300;2023-01-29T10:29:39;101746.56;;;-1.64;100.00
17593;BME280;8915;51.760;14.300;2023-01-29T10:32:07;101744.97;;;-1.62;100.00
17593;BME280;8915;51.760;14.300;2023-01-29T10:34:40;101730.66;;;-1.57;100.00
17593;BME280;8915;51.760;14.300;2023-01-29T10:37:15;101723.94;;;-1.55;100.00
17593;BME280;8915;51.760;14.300;2023-01-29T10:39:43;101719.91;;;-1.49;100.00
17593;BME280;8915;51.760;14.300;2023-01-29T10:42:16;101714.78;;;-1.49;100.00
17593;BME280;8915;51.760;14.300;2023-01-29T10:45:06;101713.00;;;-1.50;100.00
17593;BME280;8915;51.760;14.300;2023-01-29T10:47:55;101699.53;;;-1.46;100.00
17593;BME280;8915;51.760;14.300;2023-01-29T10:50:38;101703.06;;;-1.43;100.00
17593;BME280;8915;51.760;14.300;2023-01-29T10:53:24;101705.63;;;-1.43;100.00
17593;BME280;8915;51.760;14.300;2023-01-29T10:55:59;101693.75;;;-1.42;100.00
17593;BME280;8915;51.760;14.300;2023-01-29T10:58:35;101691.91;;;-1.45;100.00
17593;BME280;8915;51.760;14.300;2023-01-29T11:01:03;101697.66;;;-1.50;100.00
17593;BME280;8915;51.760;14.300;2023-01-29T11:03:31;101689.13;;;-1.51;100.00
17593;BME280;8915;51.760;14.300;2023-01-29T11:06:07;101689.88;;;-1.54;100.00
17593;BME280;8915;51.760;14.300;2023-01-29T11:08:41;101698.53;;;-1.50;100.00
17593;BME280;8915;51.760;14.300;2023-01-29T11:11:12;101699.47;;;-1.48;100.00
17593;BME280;8915;51.760;14.300;2023-01-29T11:13:41;101696.22;;;-1.44;100.00
17593;BME280;8915;51.760;14.300;2023-01-29T11:16:10;101698.03;;;-1.41;100.00
17593;BME280;8915;51.760;14.300;2023-01-29T11:18:53;101701.78;;;-1.33;100.00
17593;BME280;8915;51.760;14.300;2023-01-29T11:21:21;101701.34;;;-1.23;100.00
17593;BME280;8915;51.760;14.300;2023-01-29T11:23:50;101703.13;;;-1.20;100.00
17593;BME280;8915;51.760;14.300;2023-01-29T11:26:18;101697.44;;;-1.13;100.00
17593;BME280;8915;51.760;14.300;2023-01-29T11:28:48;101693.13;;;-1.14;100.00
17593;BME280;8915;51.760;14.300;2023-01-29T11:31:17;101681.34;;;-1.10;100.00
17593;BME280;8915;51.760;14.300;2023-01-29T11:33:45;101675.38;;;-1.09;100.00
17593;BME280;8915;51.760;14.300;2023-01-29T11:36:30;101677.25;;;-1.05;100.00
17593;BME280;8915;51.760;14.300;2023-01-29T11:39:12;101661.13;;;-1.03;100.00
17593;BME280;8915;51.760;14.300;2023-01-29T11:41:47;101652.00;;;-0.96;100.00
17593;BME280;8915;51.760;14.300;2023-01-29T11:44:19;101645.50;;;-0.88;100.00
17593;BME280;8915;51.760;14.300;2023-01-29T11:46:47;101639.84;;;-0.78;100.00
17593;BME280;8915;51.760;14.300;2023-01-29T11:49:22;101644.25;;;-0.75;100.00
17593;BME280;8915;51.760;14.300;2023-01-29T11:51:51;101646.03;;;-0.72;100.00
17593;BME280;8915;51.760;14.300;2023-01-29T11:54:24;101650.53;;;-0.67;100.00
17593;BME280;8915;51.760;14.300;2023-01-29T11:56:54;101638.63;;;-0.65;100.00
17593;BME280;8915;51.760;14.300;2023-01-29T11:59:29;101635.19;;;-0.65;100.00
17593;BME280;8915;51.760;14.300;2023-01-29T12:02:05;101638.91;;;-0.57;100.00
17593;BME280;8915;51.760;14.300;2023-01-29T12:04:38;101626.69;;;-0.64;100.00
17593;BME280;8915;51.760;14.300;2023-01-29T12:07:10;101625.78;;;-0.66;100.00
17593;BME280;8915;51.760;14.300;2023-01-29T12:09:40;101627.84;;;-0.56;100.00
17593;BME280;8915;51.760;14.300;2023-01-29T12:12:25;101631.28;;;-0.55;100.00
17593;BME280;8915;51.760;14.300;2023-01-29T12:15:02;101628.09;;;-0.48;100.00
17593;BME280;8915;51.760;14.300;2023-01-29T12:17:30;101621.34;;;-0.46;100.00
17593;BME280;8915;51.760;14.300;2023-01-29T12:20:02;101619.91;;;-0.38;100.00
17593;BME280;8915;51.760;14.300;2023-01-29T12:22:38;101625.16;;;-0.35;100.00
17593;BME280;8915;51.760;14.300;2023-01-29T12:25:19;101620.22;;;-0.29;100.00
17593;BME280;8915;51.760;14.300;2023-01-29T12:27:52;101622.53;;;-0.36;100.00
17593;BME280;8915;51.760;14.300;2023-01-29T12:30:24;101607.84;;;-0.41;100.00
17593;BME280;8915;51.760;14.300;2023-01-29T12:33:00;101607.00;;;-0.41;100.00
17593;BME280;8915;51.760;14.300;2023-01-29T12:35:30;101608.88;;;-0.35;100.00
17593;BME280;8915;51.760;14.300;2023-01-29T12:38:01;101614.63;;;-0.43;100.00
17593;BME280;8915;51.760;14.300;2023-01-29T12:40:33;101611.31;;;-0.40;100.00
17593;BME280;8915;51.760;14.300;2023-01-29T12:43:06;101599.47;;;-0.36;100.00
17593;BME280;8915;51.760;14.300;2023-01-29T12:45:38;101590.88;;;-0.39;100.00
17593;BME280;8915;51.760;14.300;2023-01-29T12:48:07;101589.78;;;-0.45;100.00
17593;BME280;8915;51.760;14.300;2023-01-29T12:50:35;101584.78;;;-0.42;100.00
17593;BME280;8915;51.760;14.300;2023-01-29T12:53:06;101584.00;;;-0.40;100.00
17593;BME280;8915;51.760;14.300;2023-01-29T12:55:42;101590.69;;;-0.43;100.00
17593;BME280;8915;51.760;14.300;2023-01-29T12:58:14;101579.25;;;-0.53;100.00
17593;BME280;8915;51.760;14.300;2023-01-29T13:00:42;101578.13;;;-0.61;100.00
17593;BME280;8915;51.760;14.300;2023-01-29T13:03:18;101576.44;;;-0.61;100.00
17593;BME280;8915;51.760;14.300;2023-01-29T13:05:47;101568.75;;;-0.61;100.00
17593;BME280;8915;51.760;14.300;2023-01-29T13:08:18;101561.06;;;-0.61;100.00
17593;BME280;8915;51.760;14.300;2023-01-29T13:10:49;101547.41;;;-0.61;100.00